Ash Grove, Missouri
Current Conditions -  °F | °C
As of 10:52 PM on Friday 28 Nov 2014 (Local Time) from KSGF Reporting Station
Clear Clear  
Wind Chill: 42°   Ceiling: Unl
Heat Index: 47°   Visibility: 10mi
Dew Point: 36°   Wind: 10mph
Humidity: 66%   Direction: 170°S
Pressure: 29.87"   Gusts: NA
Location:  37.32°N, 93.59°W
Report Text: KSGF 290452Z 17009KT 10SM CLR 08/02 A2987 RMK AO2 SLP117 T00830022
Loading
Personal Weather Stations






























Interactive Weather Map New forecast layout! Learn more

10-Day Weather Forecast

Advertisements
Track Severe Weather on mobile